Time;durP1;ratioP1;P1;durP2;ratioP2;P2;SDS_P1;SDS_P2;PMS_P1;PMS_P2;Temp;Humidity;BMP_temperature;BMP_pressure;BME280_temperature;BME280_humidity;BME280_pressure;Samples;Min_cycle;Max_cycle;Signal;HPM_P1;HPM_P2
2022/05/20 00:00:16;;;;;;;16.55;7.57;;;;;;;;;;5057828;28;20041;-78
2022/05/20 00:02:42;;;;;;;12.90;7.68;;;;;;;;;;5056734;28;20049;-79
2022/05/20 00:05:09;;;;;;;12.85;7.28;;;;;;;;;;5056343;28;20045;-79
2022/05/20 00:07:36;;;;;;;11.10;6.50;;;;;;;;;;5057291;28;20053;-78
2022/05/20 00:10:04;;;;;;;13.52;8.38;;;;;;;;;;5057066;28;20419;-78
2022/05/20 00:12:30;;;;;;;11.88;7.30;;;;;;;;;;5057316;28;20075;-79
2022/05/20 00:14:58;;;;;;;11.23;7.15;;;;;;;;;;5060554;28;20045;-78
2022/05/20 00:17:25;;;;;;;14.20;6.88;;;;;;;;;;5064078;28;20045;-78
2022/05/20 00:19:52;;;;;;;12.80;7.60;;;;;;;;;;5062741;28;20052;-79
2022/05/20 00:22:19;;;;;;;12.77;6.78;;;;;;;;;;5064430;28;20475;-79
2022/05/20 00:27:30;;;;;;;11.02;6.78;;;;;;;;;;5063770;28;20071;-79
2022/05/20 00:29:59;;;;;;;16.38;8.15;;;;;;;;;;5063486;28;20545;-79
2022/05/20 00:32:26;;;;;;;14.75;8.15;;;;;;;;;;5062881;28;20049;-79
2022/05/20 00:34:52;;;;;;;11.75;7.85;;;;;;;;;;5064990;28;20040;-78
2022/05/20 00:37:19;;;;;;;11.65;7.65;;;;;;;;;;5064998;28;20049;-79
2022/05/20 00:39:46;;;;;;;11.55;8.05;;;;;;;;;;5064361;28;20049;-78
2022/05/20 00:42:14;;;;;;;15.00;7.88;;;;;;;;;;5064344;28;20041;-78
2022/05/20 00:44:42;;;;;;;13.95;7.53;;;;;;;;;;5061401;28;20049;-79
2022/05/20 00:47:11;;;;;;;13.55;7.25;;;;;;;;;;5047669;28;20042;-79
2022/05/20 00:49:40;;;;;;;11.48;8.02;;;;;;;;;;5042370;28;20071;-79
2022/05/20 00:52:12;;;;;;;10.88;7.05;;;;;;;;;;5057486;28;20098;-79
2022/05/20 00:54:44;;;;;;;10.20;6.97;;;;;;;;;;5059534;28;20053;-79
2022/05/20 00:57:20;;;;;;;13.30;6.80;;;;;;;;;;5064393;28;20052;-79
2022/05/20 00:59:53;;;;;;;11.27;7.30;;;;;;;;;;5064702;28;20049;-78
2022/05/20 01:02:23;;;;;;;14.27;7.10;;;;;;;;;;5066378;28;20079;-79
2022/05/20 01:04:55;;;;;;;12.82;7.00;;;;;;;;;;5069446;28;20071;-77
2022/05/20 01:07:24;;;;;;;11.18;7.03;;;;;;;;;;5070536;28;20131;-79
2022/05/20 01:09:50;;;;;;;14.38;7.38;;;;;;;;;;5065783;28;20095;-78
2022/05/20 01:12:17;;;;;;;13.13;7.63;;;;;;;;;;5065140;28;20049;-79
2022/05/20 01:14:44;;;;;;;11.00;6.82;;;;;;;;;;5064709;28;20041;-79
2022/05/20 01:17:11;;;;;;;9.55;6.82;;;;;;;;;;5065194;28;20052;-78
2022/05/20 01:19:43;;;;;;;12.55;8.90;;;;;;;;;;5065547;28;20072;-79
2022/05/20 01:22:12;;;;;;;14.38;7.70;;;;;;;;;;5064475;28;20435;-78
2022/05/20 01:24:43;;;;;;;11.85;7.85;;;;;;;;;;5064811;28;20474;-79
2022/05/20 01:27:09;;;;;;;17.05;8.15;;;;;;;;;;5064414;28;20136;-79
2022/05/20 01:29:36;;;;;;;12.63;7.50;;;;;;;;;;5063431;28;20113;-79
2022/05/20 01:32:03;;;;;;;15.07;8.20;;;;;;;;;;5067656;28;20651;-78
2022/05/20 01:34:30;;;;;;;17.70;8.18;;;;;;;;;;5069460;28;20056;-78
2022/05/20 01:36:56;;;;;;;12.32;7.85;;;;;;;;;;5066837;28;20056;-78
2022/05/20 01:39:23;;;;;;;14.80;8.15;;;;;;;;;;5064212;28;20056;-78
2022/05/20 01:41:58;;;;;;;14.90;8.55;;;;;;;;;;5063908;28;20081;-78
2022/05/20 01:44:32;;;;;;;12.77;8.18;;;;;;;;;;5064027;28;20106;-78
2022/05/20 01:47:06;;;;;;;12.98;7.47;;;;;;;;;;5062457;28;20049;-78
2022/05/20 01:49:42;;;;;;;14.80;7.90;;;;;;;;;;5060928;28;20415;-78
2022/05/20 01:52:15;;;;;;;11.88;7.63;;;;;;;;;;5064684;28;20049;-79
2022/05/20 01:54:50;;;;;;;12.60;6.88;;;;;;;;;;5064376;28;20524;-79
2022/05/20 01:57:26;;;;;;;12.02;6.85;;;;;;;;;;5064204;28;20053;-79
2022/05/20 02:00:00;;;;;;;10.30;6.38;;;;;;;;;;5065275;28;20057;-79
2022/05/20 02:02:33;;;;;;;11.85;6.82;;;;;;;;;;5056343;28;20045;-78
2022/05/20 02:05:06;;;;;;;22.17;6.93;;;;;;;;;;5054826;28;20059;-78
2022/05/20 02:07:37;;;;;;;9.85;6.50;;;;;;;;;;5055269;28;20045;-79
2022/05/20 02:10:09;;;;;;;11.45;6.45;;;;;;;;;;5055010;28;20079;-79
2022/05/20 02:12:45;;;;;;;10.43;6.50;;;;;;;;;;5055245;28;20102;-79
2022/05/20 02:15:17;;;;;;;11.25;7.68;;;;;;;;;;5054480;28;20041;-78
2022/05/20 02:17:49;;;;;;;11.02;7.78;;;;;;;;;;5055843;28;20049;-78
2022/05/20 02:20:23;;;;;;;11.48;6.60;;;;;;;;;;5055103;28;20127;-79
2022/05/20 02:22:56;;;;;;;9.90;6.60;;;;;;;;;;5055067;28;20128;-79
2022/05/20 02:25:28;;;;;;;8.77;5.90;;;;;;;;;;5054644;28;20073;-78
2022/05/20 02:28:00;;;;;;;11.30;6.03;;;;;;;;;;5055002;28;20052;-78
2022/05/20 02:30:29;;;;;;;12.38;6.93;;;;;;;;;;5054947;28;20052;-77
2022/05/20 02:33:00;;;;;;;11.57;6.55;;;;;;;;;;5054813;28;20103;-77
2022/05/20 02:35:27;;;;;;;12.38;6.30;;;;;;;;;;5054509;28;20077;-78
2022/05/20 02:37:54;;;;;;;11.05;6.63;;;;;;;;;;5054490;28;20477;-78
2022/05/20 02:40:22;;;;;;;10.75;6.40;;;;;;;;;;5054105;28;20045;-78
2022/05/20 02:42:49;;;;;;;11.35;6.22;;;;;;;;;;5054623;28;20130;-77
2022/05/20 02:45:18;;;;;;;12.50;6.43;;;;;;;;;;5054752;28;20063;-78
2022/05/20 02:47:46;;;;;;;15.10;6.90;;;;;;;;;;5038366;28;20042;-78
2022/05/20 02:50:13;;;;;;;12.93;6.68;;;;;;;;;;5056516;28;20416;-78
2022/05/20 02:52:41;;;;;;;10.55;6.88;;;;;;;;;;5063178;28;20044;-78
2022/05/20 02:55:09;;;;;;;13.55;7.35;;;;;;;;;;5063795;28;20045;-79
2022/05/20 02:57:36;;;;;;;10.88;6.82;;;;;;;;;;5063201;28;20045;-78
2022/05/20 03:05:51;;;;;;;13.20;7.50;;;;;;;;;;5079952;22;20045;-67
2022/05/20 03:08:18;;;;;;;11.77;6.68;;;;;;;;;;5053710;28;20055;-65
2022/05/20 03:10:44;;;;;;;10.30;6.15;;;;;;;;;;5041231;28;20111;-65
2022/05/20 03:13:12;;;;;;;10.18;6.53;;;;;;;;;;5033678;28;20056;-66
2022/05/20 03:15:39;;;;;;;11.07;6.80;;;;;;;;;;5022355;28;20137;-66
2022/05/20 03:18:09;;;;;;;11.63;6.75;;;;;;;;;;5013691;28;20050;-66
2022/05/20 03:20:37;;;;;;;11.90;7.10;;;;;;;;;;5023214;28;20453;-66
2022/05/20 03:23:04;;;;;;;11.48;6.78;;;;;;;;;;5033547;28;20391;-66
2022/05/20 03:25:31;;;;;;;13.57;7.00;;;;;;;;;;5032324;28;20124;-66
2022/05/20 03:27:58;;;;;;;10.65;7.03;;;;;;;;;;5032696;28;20050;-66
2022/05/20 03:30:27;;;;;;;12.65;6.78;;;;;;;;;;5018958;28;20049;-66
2022/05/20 03:32:54;;;;;;;10.75;7.85;;;;;;;;;;5016166;28;20042;-66
2022/05/20 03:35:22;;;;;;;14.32;7.68;;;;;;;;;;5013032;28;20080;-66
2022/05/20 03:37:49;;;;;;;11.88;7.50;;;;;;;;;;5013767;28;20073;-66
2022/05/20 03:40:16;;;;;;;11.23;7.15;;;;;;;;;;5014361;28;20076;-66
2022/05/20 03:42:43;;;;;;;14.63;7.50;;;;;;;;;;5032824;28;20512;-66
2022/05/20 03:45:11;;;;;;;16.73;8.40;;;;;;;;;;5032268;28;20061;-65
2022/05/20 03:47:37;;;;;;;14.68;9.05;;;;;;;;;;5043338;28;20107;-66
2022/05/20 03:50:06;;;;;;;15.95;9.85;;;;;;;;;;5052475;28;20041;-66
2022/05/20 03:52:34;;;;;;;18.80;9.90;;;;;;;;;;5032089;28;20045;-66
2022/05/20 03:55:02;;;;;;;18.33;10.77;;;;;;;;;;5033364;28;20045;-66
2022/05/20 03:57:29;;;;;;;20.35;10.27;;;;;;;;;;5015054;28;20525;-66
2022/05/20 03:59:56;;;;;;;16.58;10.90;;;;;;;;;;5013226;28;20061;-66
2022/05/20 04:02:22;;;;;;;17.30;10.38;;;;;;;;;;5029441;28;20053;-66
2022/05/20 04:04:52;;;;;;;19.50;10.90;;;;;;;;;;5032296;28;20060;-66
2022/05/20 04:07:21;;;;;;;21.27;11.10;;;;;;;;;;5016955;28;20096;-66
2022/05/20 04:09:49;;;;;;;18.42;11.35;;;;;;;;;;5012498;28;20045;-66
2022/05/20 04:12:24;;;;;;;19.33;10.63;;;;;;;;;;5027019;28;20411;-65
2022/05/20 04:14:51;;;;;;;16.67;10.48;;;;;;;;;;5032018;28;20052;-65
2022/05/20 04:17:18;;;;;;;17.77;8.98;;;;;;;;;;5017912;28;20042;-65
2022/05/20 04:19:45;;;;;;;15.98;9.18;;;;;;;;;;5012706;28;20423;-66
2022/05/20 04:22:13;;;;;;;16.90;9.57;;;;;;;;;;5025521;28;20387;-66
2022/05/20 04:24:40;;;;;;;16.10;9.23;;;;;;;;;;5032279;28;20129;-67
2022/05/20 04:27:08;;;;;;;14.57;8.13;;;;;;;;;;5020033;28;20049;-67
2022/05/20 04:29:35;;;;;;;15.60;9.00;;;;;;;;;;5012822;28;20046;-66
2022/05/20 04:32:03;;;;;;;14.73;8.95;;;;;;;;;;5021319;28;20045;-67
2022/05/20 04:34:31;;;;;;;16.33;8.88;;;;;;;;;;5028185;28;20052;-65
2022/05/20 04:36:57;;;;;;;15.73;8.95;;;;;;;;;;5011293;28;20053;-65
2022/05/20 04:39:25;;;;;;;14.05;7.85;;;;;;;;;;5014504;28;20056;-66
2022/05/20 04:47:25;;;;;;;14.18;8.43;;;;;;;;;;5044978;28;20047;-66
2022/05/20 04:49:52;;;;;;;15.00;9.55;;;;;;;;;;5045392;28;20046;-66
2022/05/20 04:52:19;;;;;;;14.43;9.15;;;;;;;;;;5025683;28;20049;-70
2022/05/20 04:54:52;;;;;;;15.38;9.50;;;;;;;;;;5015672;28;20398;-66
2022/05/20 04:57:22;;;;;;;15.82;8.65;;;;;;;;;;5032607;28;20045;-66
2022/05/20 04:59:52;;;;;;;15.38;9.43;;;;;;;;;;5028398;28;20549;-66
2022/05/20 05:02:19;;;;;;;13.43;7.53;;;;;;;;;;5014409;28;20081;-65
2022/05/20 05:04:47;;;;;;;12.60;7.55;;;;;;;;;;5031824;28;20049;-66
2022/05/20 05:07:14;;;;;;;13.02;8.05;;;;;;;;;;5017283;28;20042;-65
2022/05/20 05:09:42;;;;;;;15.50;7.90;;;;;;;;;;5011866;28;20061;-66
2022/05/20 05:12:11;;;;;;;12.45;7.43;;;;;;;;;;5019476;28;20042;-66
2022/05/20 05:14:39;;;;;;;13.85;7.97;;;;;;;;;;5011889;28;20502;-66
2022/05/20 05:17:10;;;;;;;13.88;8.88;;;;;;;;;;5013143;28;20046;-66
2022/05/20 05:19:38;;;;;;;14.25;8.30;;;;;;;;;;5011792;28;20073;-66
2022/05/20 05:22:06;;;;;;;15.00;8.95;;;;;;;;;;5013053;28;20050;-66
2022/05/20 05:24:33;;;;;;;14.50;8.80;;;;;;;;;;5011750;28;20054;-66
2022/05/20 05:27:00;;;;;;;16.35;9.52;;;;;;;;;;5012529;28;20045;-67
2022/05/20 05:29:27;;;;;;;14.82;9.25;;;;;;;;;;5011533;28;20050;-66
2022/05/20 05:31:55;;;;;;;13.55;8.07;;;;;;;;;;5020099;28;20053;-66
2022/05/20 05:34:23;;;;;;;14.05;7.53;;;;;;;;;;5026985;28;20053;-66
2022/05/20 05:36:50;;;;;;;14.35;8.32;;;;;;;;;;5011327;28;20049;-65
2022/05/20 05:39:17;;;;;;;13.77;7.75;;;;;;;;;;5017737;28;20041;-65
2022/05/20 05:41:45;;;;;;;12.85;7.07;;;;;;;;;;5031068;28;20046;-66
2022/05/20 05:44:11;;;;;;;10.70;7.07;;;;;;;;;;5031016;28;20140;-66
2022/05/20 05:46:38;;;;;;;14.45;7.18;;;;;;;;;;5037777;28;20076;-67
2022/05/20 05:49:07;;;;;;;13.93;6.93;;;;;;;;;;5049076;28;20122;-66
2022/05/20 05:51:36;;;;;;;13.98;7.63;;;;;;;;;;5035010;28;20142;-66
2022/05/20 05:54:02;;;;;;;11.38;7.50;;;;;;;;;;5031701;28;20046;-66
2022/05/20 05:56:29;;;;;;;13.65;7.60;;;;;;;;;;5014739;28;20057;-66
2022/05/20 05:58:57;;;;;;;10.25;6.78;;;;;;;;;;5016630;28;20049;-65
2022/05/20 06:01:24;;;;;;;14.70;7.65;;;;;;;;;;5034947;28;20141;-65
2022/05/20 06:03:50;;;;;;;17.20;8.98;;;;;;;;;;5034119;28;20414;-65
2022/05/20 06:06:17;;;;;;;13.82;8.93;;;;;;;;;;5014577;28;20054;-65
2022/05/20 06:08:46;;;;;;;14.05;8.40;;;;;;;;;;5031800;28;20050;-65
2022/05/20 06:11:13;;;;;;;13.98;9.75;;;;;;;;;;5026906;28;20502;-65
2022/05/20 06:13:40;;;;;;;14.35;9.35;;;;;;;;;;5015104;28;20411;-65
2022/05/20 06:16:07;;;;;;;14.27;9.43;;;;;;;;;;5020681;28;20064;-65
2022/05/20 06:18:34;;;;;;;13.43;8.27;;;;;;;;;;5034460;28;20045;-65
2022/05/20 06:21:04;;;;;;;11.93;6.85;;;;;;;;;;5032806;28;20080;-66
2022/05/20 06:23:31;;;;;;;13.43;7.30;;;;;;;;;;5034655;28;20058;-66
2022/05/20 06:26:00;;;;;;;10.07;7.43;;;;;;;;;;5030005;28;20290;-66
2022/05/20 06:28:26;;;;;;;12.10;7.85;;;;;;;;;;5014626;28;20088;-66
2022/05/20 06:30:53;;;;;;;11.35;7.72;;;;;;;;;;5015539;28;20050;-66
2022/05/20 06:33:20;;;;;;;12.23;7.40;;;;;;;;;;5014678;28;20053;-66
2022/05/20 06:41:17;;;;;;;16.48;11.75;;;;;;;;;;5018699;28;20077;-66
2022/05/20 06:43:44;;;;;;;11.25;7.15;;;;;;;;;;5014726;28;20046;-65
2022/05/20 06:46:11;;;;;;;15.25;8.57;;;;;;;;;;5020297;28;20240;-65
2022/05/20 06:48:45;;;;;;;20.45;11.13;;;;;;;;;;5053736;28;20041;-65
2022/05/20 06:51:15;;;;;;;26.30;13.00;;;;;;;;;;5013788;28;20134;-65
2022/05/20 06:53:43;;;;;;;25.15;12.15;;;;;;;;;;5014202;28;20133;-65
2022/05/20 06:56:10;;;;;;;23.73;12.40;;;;;;;;;;5013845;28;20050;-66
2022/05/20 06:58:39;;;;;;;12.35;7.93;;;;;;;;;;5014145;28;20076;-66
2022/05/20 07:01:06;;;;;;;12.05;8.32;;;;;;;;;;5014956;28;20054;-67
2022/05/20 07:03:33;;;;;;;13.20;7.78;;;;;;;;;;5013745;28;20056;-66
2022/05/20 07:05:59;;;;;;;10.65;7.47;;;;;;;;;;5030968;28;20410;-66
2022/05/20 07:08:26;;;;;;;10.40;7.35;;;;;;;;;;5033167;28;20418;-67
2022/05/20 07:10:53;;;;;;;13.30;7.28;;;;;;;;;;5016857;28;20419;-66
2022/05/20 07:13:20;;;;;;;14.15;8.30;;;;;;;;;;5013735;28;20073;-66
2022/05/20 07:15:48;;;;;;;16.05;9.05;;;;;;;;;;5027921;28;20053;-66
2022/05/20 07:18:15;;;;;;;12.88;8.70;;;;;;;;;;5033183;28;20460;-66
2022/05/20 07:20:43;;;;;;;14.45;8.20;;;;;;;;;;5031511;28;20050;-66
2022/05/20 07:23:10;;;;;;;15.40;8.88;;;;;;;;;;5033197;28;20136;-66
2022/05/20 07:25:37;;;;;;;15.27;9.15;;;;;;;;;;5020421;28;20100;-66
2022/05/20 07:28:05;;;;;;;29.50;15.57;;;;;;;;;;5014245;28;20392;-67
2022/05/20 07:30:33;;;;;;;16.55;8.82;;;;;;;;;;5023110;28;20081;-67
2022/05/20 07:33:01;;;;;;;12.27;7.45;;;;;;;;;;5013580;28;20081;-66
2022/05/20 07:35:28;;;;;;;15.10;8.32;;;;;;;;;;5028432;28;20053;-66
2022/05/20 07:37:55;;;;;;;14.48;8.80;;;;;;;;;;5013171;28;20041;-66
2022/05/20 07:40:23;;;;;;;15.95;9.27;;;;;;;;;;5013043;28;20062;-66
2022/05/20 07:42:50;;;;;;;12.50;7.60;;;;;;;;;;5013080;28;20097;-67
2022/05/20 07:45:17;;;;;;;13.77;8.15;;;;;;;;;;5012821;28;20050;-66
2022/05/20 07:47:44;;;;;;;12.82;8.63;;;;;;;;;;5042226;28;20053;-66
2022/05/20 07:50:14;;;;;;;13.18;7.95;;;;;;;;;;5032924;28;20060;-66
2022/05/20 07:55:32;;;;;;;13.40;8.88;;;;;;;;;;5032407;28;20132;-65
2022/05/20 07:58:25;;;;;;;;;;;;;;;;;;;;;
2022/05/20 08:00:58;;;;;;;12.73;7.93;;;;;;;;;;5033867;28;20433;-64
2022/05/20 08:06:13;;;;;;;12.60;8.55;;;;;;;;;;5032894;28;20107;-70
2022/05/20 08:08:40;;;;;;;;;;;;;;;;;;5032969;28;20136;-65
2022/05/20 08:11:07;;;;;;;11.55;7.05;;;;;;;;;;5031846;28;19944;-68
2022/05/20 08:13:34;;;;;;;12.25;7.32;;;;;;;;;;5032633;28;20046;-64
2022/05/20 08:16:01;;;;;;;15.88;10.35;;;;;;;;;;5032426;28;20380;-64
2022/05/20 08:18:28;;;;;;;14.82;8.55;;;;;;;;;;5032296;28;20046;-66
2022/05/20 08:20:56;;;;;;;17.80;8.50;;;;;;;;;;5032556;28;20045;-66
2022/05/20 08:23:24;;;;;;;10.55;7.03;;;;;;;;;;5032687;28;20103;-65
2022/05/20 08:25:52;;;;;;;19.95;10.63;;;;;;;;;;5030295;28;20570;-65
2022/05/20 08:28:20;;;;;;;13.93;8.48;;;;;;;;;;5013375;28;20060;-66
2022/05/20 08:30:47;;;;;;;13.00;7.10;;;;;;;;;;5012441;28;20049;-65
2022/05/20 08:33:13;;;;;;;10.57;7.05;;;;;;;;;;5012423;28;20061;-65
2022/05/20 08:35:40;;;;;;;10.85;7.22;;;;;;;;;;5012418;28;20053;-67
2022/05/20 08:38:07;;;;;;;11.30;6.22;;;;;;;;;;5012993;28;20053;-66
2022/05/20 08:40:39;;;;;;;12.05;7.25;;;;;;;;;;5026580;28;20513;-66
2022/05/20 08:43:06;;;;;;;8.95;6.10;;;;;;;;;;5032216;28;20068;-65
2022/05/20 08:45:33;;;;;;;13.15;6.97;;;;;;;;;;5019051;28;20499;-67
2022/05/20 08:48:00;;;;;;;14.02;8.73;;;;;;;;;;5048332;28;20049;-66
2022/05/20 08:50:33;;;;;;;9.98;7.22;;;;;;;;;;5026457;28;20045;-66
2022/05/20 08:53:00;;;;;;;10.35;6.82;;;;;;;;;;5012974;28;20048;-66
2022/05/20 08:55:27;;;;;;;44.15;34.80;;;;;;;;;;5011650;28;20054;-67
2022/05/20 08:57:58;;;;;;;16.25;10.95;;;;;;;;;;5013049;28;20073;-66
2022/05/20 09:00:26;;;;;;;28.85;19.90;;;;;;;;;;5013332;28;20057;-67
2022/05/20 09:02:53;;;;;;;11.52;8.50;;;;;;;;;;5020115;28;20049;-66
2022/05/20 09:05:23;;;;;;;14.77;9.50;;;;;;;;;;5029742;28;20518;-66
2022/05/20 09:08:02;;;;;;;;;;;;;;;;;;5031957;28;20057;-68
2022/05/20 09:10:37;;;;;;;17.02;7.95;;;;;;;;;;5023969;28;19928;-65
2022/05/20 09:13:13;;;;;;;15.52;7.65;;;;;;;;;;5023454;28;20112;-65
2022/05/20 09:15:46;;;;;;;12.35;7.40;;;;;;;;;;5014851;28;20124;-66
2022/05/20 09:18:20;;;;;;;12.27;7.97;;;;;;;;;;5016208;28;20052;-66
2022/05/20 09:20:49;;;;;;;13.05;8.25;;;;;;;;;;5032053;28;20490;-65
2022/05/20 09:23:20;;;;;;;12.90;7.50;;;;;;;;;;5033391;28;20042;-64
2022/05/20 09:26:01;;;;;;;14.05;8.63;;;;;;;;;;5031874;28;20046;-66
2022/05/20 09:28:37;;;;;;;12.07;7.90;;;;;;;;;;5033802;28;20042;-65
2022/05/20 09:31:14;;;;;;;17.58;9.10;;;;;;;;;;5031468;28;20049;-64
2022/05/20 09:33:49;;;;;;;13.63;8.45;;;;;;;;;;5015987;28;20057;-66
2022/05/20 09:36:34;;;;;;;12.65;8.60;;;;;;;;;;5022511;28;20410;-59
2022/05/20 09:39:09;;;;;;;14.43;9.23;;;;;;;;;;5028386;28;20084;-59
2022/05/20 09:41:45;;;;;;;21.30;15.38;;;;;;;;;;5034946;28;20049;-59
2022/05/20 09:44:15;;;;;;;17.00;10.45;;;;;;;;;;5015601;28;20050;-58
2022/05/20 09:46:51;;;;;;;18.55;11.45;;;;;;;;;;5030844;28;20468;-59
2022/05/20 09:49:23;;;;;;;11.60;8.52;;;;;;;;;;5042272;28;20103;-61
2022/05/20 09:51:54;;;;;;;14.30;8.40;;;;;;;;;;5022844;28;20473;-60
2022/05/20 09:54:24;;;;;;;14.30;8.88;;;;;;;;;;5035067;28;20053;-60
2022/05/20 09:57:00;;;;;;;14.45;8.35;;;;;;;;;;5033737;28;20048;-62
2022/05/20 09:59:38;;;;;;;12.80;8.75;;;;;;;;;;5031484;28;20574;-62
2022/05/20 10:02:10;;;;;;;14.98;9.48;;;;;;;;;;5033627;28;20419;-62
2022/05/20 10:04:47;;;;;;;20.55;10.30;;;;;;;;;;5016954;28;20045;-60
2022/05/20 10:07:20;;;;;;;20.60;10.13;;;;;;;;;;5019384;28;20116;-62
2022/05/20 10:09:55;;;;;;;15.65;10.63;;;;;;;;;;5025898;28;20050;-62
2022/05/20 10:12:28;;;;;;;15.45;9.38;;;;;;;;;;5026989;28;20084;-60
2022/05/20 10:15:03;;;;;;;12.95;8.80;;;;;;;;;;5014920;28;20117;-62
2022/05/20 10:17:41;;;;;;;12.45;8.75;;;;;;;;;;5032786;28;20522;-61
2022/05/20 10:20:14;;;;;;;18.08;8.98;;;;;;;;;;5034581;28;20053;-62
2022/05/20 10:22:59;;;;;;;16.02;8.85;;;;;;;;;;5034073;28;20053;-62
2022/05/20 10:25:31;;;;;;;13.85;8.93;;;;;;;;;;5025085;28;20069;-61
2022/05/20 10:28:05;;;;;;;13.82;8.82;;;;;;;;;;5015162;28;20068;-62
2022/05/20 10:33:32;;;;;;;15.50;9.27;;;;;;;;;;4935950;29;20051;-63
2022/05/20 10:36:10;;;;;;;13.90;9.13;;;;;;;;;;4996486;28;20053;-59
2022/05/20 10:38:58;;;;;;;15.75;10.68;;;;;;;;;;5014842;28;20045;-65
2022/05/20 10:41:39;;;;;;;14.95;9.50;;;;;;;;;;5022512;28;20102;-61
2022/05/20 10:50:10;;;;;;;13.07;9.52;;;;;;;;;;5034376;28;20052;-60
2022/05/20 10:52:54;;;;;;;14.57;9.70;;;;;;;;;;5034341;28;20121;-61
2022/05/20 10:55:32;;;;;;;13.57;9.27;;;;;;;;;;5033612;28;20045;-61
2022/05/20 10:58:37;;;;;;;16.10;8.93;;;;;;;;;;5029362;28;20049;-61
2022/05/20 11:01:12;;;;;;;14.45;8.73;;;;;;;;;;5013936;28;20054;-61
2022/05/20 11:04:04;;;;;;;18.35;9.05;;;;;;;;;;5031022;28;20051;-61
2022/05/20 11:07:01;;;;;;;17.10;9.40;;;;;;;;;;5019533;28;20524;-63
2022/05/20 11:09:37;;;;;;;12.45;8.85;;;;;;;;;;5012587;28;20053;-61
2022/05/20 11:12:05;;;;;;;17.83;9.25;;;;;;;;;;5020210;28;20050;-61
2022/05/20 11:15:10;;;;;;;15.13;8.63;;;;;;;;;;5013759;28;20053;-60
2022/05/20 11:18:01;;;;;;;19.13;9.07;;;;;;;;;;5023794;28;20469;-62
2022/05/20 11:20:47;;;;;;;15.68;9.20;;;;;;;;;;5025618;28;20050;-59
2022/05/20 11:23:39;;;;;;;15.18;9.30;;;;;;;;;;5021935;28;20048;-60
2022/05/20 11:26:38;;;;;;;13.77;8.45;;;;;;;;;;5032668;28;20053;-61
2022/05/20 11:29:56;;;;;;;12.77;8.52;;;;;;;;;;5018201;28;20046;-62
2022/05/20 11:32:33;;;;;;;15.73;8.75;;;;;;;;;;5033834;28;20052;-62
2022/05/20 11:35:35;;;;;;;13.70;8.75;;;;;;;;;;5017468;28;20045;-61
2022/05/20 11:38:27;;;;;;;18.52;9.18;;;;;;;;;;4971861;28;20061;-61
2022/05/20 11:41:06;;;;;;;13.23;9.52;;;;;;;;;;5020226;28;20057;-61
2022/05/20 11:43:51;;;;;;;13.75;9.25;;;;;;;;;;5033271;28;20064;-61
2022/05/20 11:46:34;;;;;;;14.60;9.40;;;;;;;;;;5036387;28;20391;-61
2022/05/20 11:49:29;;;;;;;16.10;10.65;;;;;;;;;;5040002;28;20049;-60
2022/05/20 11:52:30;;;;;;;14.48;8.63;;;;;;;;;;5027856;28;20059;-62
2022/05/20 11:55:05;;;;;;;14.20;8.32;;;;;;;;;;4992633;28;20053;-61
2022/05/20 11:57:39;;;;;;;12.93;8.70;;;;;;;;;;5028464;28;20046;-60
2022/05/20 12:00:10;;;;;;;13.68;8.82;;;;;;;;;;5029826;28;20050;-61
2022/05/20 12:02:41;;;;;;;12.82;8.40;;;;;;;;;;5012380;28;20060;-61
2022/05/20 12:05:12;;;;;;;15.02;8.48;;;;;;;;;;5014200;28;20046;-61
2022/05/20 12:07:39;;;;;;;16.63;9.20;;;;;;;;;;5032509;28;20046;-61
2022/05/20 12:10:46;;;;;;;13.00;8.73;;;;;;;;;;5032798;28;20056;-59
2022/05/20 12:13:17;;;;;;;15.05;8.70;;;;;;;;;;5026485;28;20046;-60
2022/05/20 12:15:47;;;;;;;15.90;9.00;;;;;;;;;;5020722;28;20041;-61
2022/05/20 12:24:11;;;;;;;13.18;8.45;;;;;;;;;;5024757;28;20079;-61
2022/05/20 12:24:15;;;;;;;15.90;8.90;;;;;;;;;;5023773;28;20410;-61
2022/05/20 12:26:49;;;;;;;12.10;8.20;;;;;;;;;;5021065;28;20489;-60
2022/05/20 12:30:01;;;;;;;13.38;8.38;;;;;;;;;;5025290;28;20050;-61
2022/05/20 12:32:53;;;;;;;15.48;9.20;;;;;;;;;;5028431;28;20053;-61
2022/05/20 12:35:27;;;;;;;25.15;15.02;;;;;;;;;;5031715;28;20053;-61
2022/05/20 12:37:57;;;;;;;14.55;9.05;;;;;;;;;;5028572;28;20049;-61
2022/05/20 12:40:50;;;;;;;13.13;8.75;;;;;;;;;;5012153;28;20498;-61
2022/05/20 12:43:39;;;;;;;14.32;9.45;;;;;;;;;;5022447;28;20045;-61
2022/05/20 12:46:06;;;;;;;14.27;9.52;;;;;;;;;;5016468;28;20050;-61
2022/05/20 12:48:34;;;;;;;15.57;9.20;;;;;;;;;;5015784;28;20050;-63
2022/05/20 12:51:02;;;;;;;16.88;8.88;;;;;;;;;;5022742;28;20517;-60
2022/05/20 12:53:31;;;;;;;16.52;9.15;;;;;;;;;;5017334;28;20046;-60
2022/05/20 12:55:58;;;;;;;13.73;8.57;;;;;;;;;;5012115;28;20049;-61
2022/05/20 12:58:29;;;;;;;16.05;9.55;;;;;;;;;;5022369;28;20072;-61
2022/05/20 13:00:59;;;;;;;14.82;9.82;;;;;;;;;;5023037;28;20236;-61
2022/05/20 13:03:30;;;;;;;18.00;9.30;;;;;;;;;;5030009;28;20140;-61
2022/05/20 13:06:00;;;;;;;15.48;10.23;;;;;;;;;;5025816;28;20499;-61
2022/05/20 13:08:34;;;;;;;14.68;8.57;;;;;;;;;;5010371;28;20077;-60
2022/05/20 13:11:08;;;;;;;16.15;9.93;;;;;;;;;;5010237;28;20050;-60
2022/05/20 13:13:37;;;;;;;14.20;9.38;;;;;;;;;;5026465;28;20067;-61
2022/05/20 13:16:07;;;;;;;14.38;9.07;;;;;;;;;;5029860;28;20064;-60
2022/05/20 13:18:35;;;;;;;11.80;8.45;;;;;;;;;;5029867;28;20072;-61
2022/05/20 13:21:06;;;;;;;14.55;8.52;;;;;;;;;;5029431;28;20049;-62
2022/05/20 13:23:36;;;;;;;13.18;8.93;;;;;;;;;;5029588;28;20053;-61
2022/05/20 13:26:03;;;;;;;11.15;8.88;;;;;;;;;;5028964;28;20048;-62
2022/05/20 13:28:32;;;;;;;16.10;9.00;;;;;;;;;;5029440;28;20560;-61
2022/05/20 13:31:07;;;;;;;12.48;8.88;;;;;;;;;;5029605;28;20069;-62
2022/05/20 13:33:36;;;;;;;14.05;9.15;;;;;;;;;;5029224;28;20049;-62
2022/05/20 13:36:05;;;;;;;14.20;10.68;;;;;;;;;;5029151;28;20056;-62
2022/05/20 13:38:34;;;;;;;15.68;9.15;;;;;;;;;;5022342;28;20075;-62
2022/05/20 13:41:02;;;;;;;18.02;9.05;;;;;;;;;;5009724;28;20411;-60
2022/05/20 13:43:33;;;;;;;14.10;8.88;;;;;;;;;;5018467;28;20064;-61
2022/05/20 13:51:39;;;;;;;14.45;8.75;;;;;;;;;;5046081;28;20064;-62
2022/05/20 13:54:10;;;;;;;13.80;8.63;;;;;;;;;;5029588;28;20045;-62
2022/05/20 13:56:40;;;;;;;13.10;8.63;;;;;;;;;;5015719;28;20457;-65
2022/05/20 13:59:19;;;;;;;15.93;9.95;;;;;;;;;;5017661;28;20049;-66
2022/05/20 14:01:51;;;;;;;11.30;8.13;;;;;;;;;;5029685;28;20045;-65
2022/05/20 14:04:21;;;;;;;14.35;8.48;;;;;;;;;;5022599;28;20046;-62
2022/05/20 14:06:51;;;;;;;13.45;9.02;;;;;;;;;;5025782;28;20129;-61
2022/05/20 14:09:18;;;;;;;11.90;8.85;;;;;;;;;;5030230;28;20049;-62
2022/05/20 14:11:52;;;;;;;10.77;8.27;;;;;;;;;;5034754;28;20136;-61
2022/05/20 14:14:22;;;;;;;14.55;8.88;;;;;;;;;;5035140;28;20046;-61
2022/05/20 14:16:52;;;;;;;14.55;9.30;;;;;;;;;;5035000;28;20050;-62
2022/05/20 14:19:32;;;;;;;13.80;8.63;;;;;;;;;;5035295;28;20068;-62
2022/05/20 14:22:02;;;;;;;14.88;9.48;;;;;;;;;;5034812;28;20499;-62
2022/05/20 14:24:33;;;;;;;13.05;8.57;;;;;;;;;;5035264;28;20053;-62
2022/05/20 14:27:00;;;;;;;13.15;8.52;;;;;;;;;;5035414;28;20504;-62
2022/05/20 14:29:32;;;;;;;12.48;9.00;;;;;;;;;;5035697;28;20080;-63
2022/05/20 14:32:02;;;;;;;11.23;7.75;;;;;;;;;;5035423;28;20059;-62
2022/05/20 14:34:36;;;;;;;14.95;9.20;;;;;;;;;;5035421;28;20498;-62
2022/05/20 14:37:08;;;;;;;14.30;8.18;;;;;;;;;;5034843;28;20049;-63
2022/05/20 14:39:35;;;;;;;12.13;8.20;;;;;;;;;;5034912;28;20056;-61
2022/05/20 14:42:09;;;;;;;14.45;8.60;;;;;;;;;;5034510;28;20060;-63
2022/05/20 14:44:36;;;;;;;13.20;8.38;;;;;;;;;;5034660;28;20088;-63
2022/05/20 14:47:16;;;;;;;14.73;8.07;;;;;;;;;;5045049;28;20075;-64
2022/05/20 14:49:54;;;;;;;12.02;8.80;;;;;;;;;;5055286;28;20045;-62
2022/05/20 14:52:27;;;;;;;14.93;9.95;;;;;;;;;;5054838;28;20417;-62
2022/05/20 14:54:55;;;;;;;15.88;9.52;;;;;;;;;;5054975;28;20396;-62
2022/05/20 14:57:27;;;;;;;15.77;9.68;;;;;;;;;;5054751;28;20045;-62
2022/05/20 15:00:19;;;;;;;14.43;8.90;;;;;;;;;;5055028;28;20449;-63
2022/05/20 15:02:46;;;;;;;15.05;10.10;;;;;;;;;;5054733;28;20052;-62
2022/05/20 15:05:15;;;;;;;13.90;9.40;;;;;;;;;;5054266;28;20055;-62
2022/05/20 15:07:44;;;;;;;17.75;10.18;;;;;;;;;;5054412;28;20045;-58
2022/05/20 15:10:16;;;;;;;15.65;9.05;;;;;;;;;;5054735;28;20402;-61
2022/05/20 15:12:44;;;;;;;13.90;8.57;;;;;;;;;;5054700;28;20513;-59
2022/05/20 15:15:12;;;;;;;13.13;8.30;;;;;;;;;;5054584;28;20086;-58
2022/05/20 15:17:57;;;;;;;12.55;8.38;;;;;;;;;;5054848;28;20449;-58
2022/05/20 15:20:26;;;;;;;13.10;8.00;;;;;;;;;;5053761;28;20049;-59
2022/05/20 15:22:54;;;;;;;14.13;8.52;;;;;;;;;;5053672;28;20059;-60
2022/05/20 15:25:21;;;;;;;15.45;8.98;;;;;;;;;;5053559;28;20418;-58
2022/05/20 15:27:48;;;;;;;13.23;8.35;;;;;;;;;;5053715;28;20091;-60
2022/05/20 15:30:15;;;;;;;13.25;8.25;;;;;;;;;;5053723;28;20482;-59
2022/05/20 15:35:28;;;;;;;13.52;8.65;;;;;;;;;;5053257;28;20087;-61
2022/05/20 15:37:59;;;;;;;13.88;8.38;;;;;;;;;;5053296;28;20140;-61
2022/05/20 15:40:27;;;;;;;14.40;8.23;;;;;;;;;;5053272;28;20056;-59